sensor_id;sensor_type;location;lat;lon;timestamp;temperature;humidity
21799;DHT22;24973;47.178;15.316;2023-02-08T00:00:19;-6.80;99.90
21799;DHT22;24973;47.178;15.316;2023-02-08T00:25:36;-5.40;99.90
21799;DHT22;24973;47.178;15.316;2023-02-08T00:28:25;-7.30;99.90
21799;DHT22;24973;47.178;15.316;2023-02-08T00:31:14;-7.30;99.90
21799;DHT22;24973;47.178;15.316;2023-02-08T00:36:52;-7.30;99.90
21799;DHT22;24973;47.178;15.316;2023-02-08T00:39:41;-7.20;99.90
21799;DHT22;24973;47.178;15.316;2023-02-08T00:42:31;-7.10;99.90
21799;DHT22;24973;47.178;15.316;2023-02-08T00:45:20;-7.20;99.90
21799;DHT22;24973;47.178;15.316;2023-02-08T00:48:09;-4.60;99.90
21799;DHT22;24973;47.178;15.316;2023-02-08T00:51:00;-5.30;99.90
21799;DHT22;24973;47.178;15.316;2023-02-08T00:53:49;-7.20;99.90
21799;DHT22;24973;47.178;15.316;2023-02-08T00:59:28;-7.40;99.90
21799;DHT22;24973;47.178;15.316;2023-02-08T01:02:17;-7.30;99.90
21799;DHT22;24973;47.178;15.316;2023-02-08T01:05:06;-7.40;99.90
21799;DHT22;24973;47.178;15.316;2023-02-08T01:10:44;-7.50;99.90
21799;DHT22;24973;47.178;15.316;2023-02-08T01:13:33;-7.70;99.90
21799;DHT22;24973;47.178;15.316;2023-02-08T01:16:25;-7.70;99.90
21799;DHT22;24973;47.178;15.316;2023-02-08T01:19:17;-7.70;99.90
21799;DHT22;24973;47.178;15.316;2023-02-08T01:22:06;-7.70;99.90
21799;DHT22;24973;47.178;15.316;2023-02-08T01:24:55;-7.80;99.90
21799;DHT22;24973;47.178;15.316;2023-02-08T01:27:44;-7.80;99.90
21799;DHT22;24973;47.178;15.316;2023-02-08T01:30:32;-7.90;99.90
21799;DHT22;24973;47.178;15.316;2023-02-08T01:33:22;-7.90;99.90
21799;DHT22;24973;47.178;15.316;2023-02-08T01:36:12;-7.80;99.90
21799;DHT22;24973;47.178;15.316;2023-02-08T01:39:02;-7.70;99.90
21799;DHT22;24973;47.178;15.316;2023-02-08T01:41:51;-7.60;99.90
21799;DHT22;24973;47.178;15.316;2023-02-08T01:45:17;-7.60;99.90
21799;DHT22;24973;47.178;15.316;2023-02-08T01:48:15;-7.80;99.90
21799;DHT22;24973;47.178;15.316;2023-02-08T01:51:11;-7.90;99.90
21799;DHT22;24973;47.178;15.316;2023-02-08T01:54:04;-7.90;99.90
21799;DHT22;24973;47.178;15.316;2023-02-08T01:56:54;-7.80;99.90
21799;DHT22;24973;47.178;15.316;2023-02-08T01:59:46;-7.80;99.90
21799;DHT22;24973;47.178;15.316;2023-02-08T02:02:38;-5.40;99.90
21799;DHT22;24973;47.178;15.316;2023-02-08T02:05:31;-7.80;99.90
21799;DHT22;24973;47.178;15.316;2023-02-08T02:08:24;-7.80;99.90
21799;DHT22;24973;47.178;15.316;2023-02-08T02:14:02;-7.70;99.90
21799;DHT22;24973;47.178;15.316;2023-02-08T02:19:48;-7.90;99.90
21799;DHT22;24973;47.178;15.316;2023-02-08T02:23:07;-8.00;99.90
21799;DHT22;24973;47.178;15.316;2023-02-08T02:33:45;-8.20;99.90
21799;DHT22;24973;47.178;15.316;2023-02-08T02:36:46;-8.40;99.90
21799;DHT22;24973;47.178;15.316;2023-02-08T02:39:42;-8.40;99.90
21799;DHT22;24973;47.178;15.316;2023-02-08T02:42:40;-8.40;99.90
21799;DHT22;24973;47.178;15.316;2023-02-08T02:46:03;-8.40;99.90
21799;DHT22;24973;47.178;15.316;2023-02-08T02:49:01;-8.30;99.90
21799;DHT22;24973;47.178;15.316;2023-02-08T02:51:56;-8.30;99.90
21799;DHT22;24973;47.178;15.316;2023-02-08T02:54:50;-8.20;99.90
21799;DHT22;24973;47.178;15.316;2023-02-08T02:57:41;-8.20;99.90
21799;DHT22;24973;47.178;15.316;2023-02-08T03:00:32;-8.20;99.90
21799;DHT22;24973;47.178;15.316;2023-02-08T03:03:24;-8.20;99.90
21799;DHT22;24973;47.178;15.316;2023-02-08T03:06:21;-8.10;99.90
21799;DHT22;24973;47.178;15.316;2023-02-08T03:09:40;-8.00;99.90
21799;DHT22;24973;47.178;15.316;2023-02-08T03:12:42;-8.10;99.90
21799;DHT22;24973;47.178;15.316;2023-02-08T03:15:47;-8.20;99.90
21799;DHT22;24973;47.178;15.316;2023-02-08T03:18:51;-8.40;99.90
21799;DHT22;24973;47.178;15.316;2023-02-08T03:21:53;-8.60;99.90
21799;DHT22;24973;47.178;15.316;2023-02-08T03:24:50;-8.50;99.90
21799;DHT22;24973;47.178;15.316;2023-02-08T03:27:48;-8.70;99.90
21799;DHT22;24973;47.178;15.316;2023-02-08T03:30:45;-8.70;99.90
21799;DHT22;24973;47.178;15.316;2023-02-08T03:33:41;-8.60;99.90
21799;DHT22;24973;47.178;15.316;2023-02-08T03:36:40;-8.50;99.90
21799;DHT22;24973;47.178;15.316;2023-02-08T03:39:36;-8.50;99.90
21799;DHT22;24973;47.178;15.316;2023-02-08T03:42:27;-8.40;99.90
21799;DHT22;24973;47.178;15.316;2023-02-08T03:45:21;-8.60;99.90
21799;DHT22;24973;47.178;15.316;2023-02-08T03:48:16;-8.70;99.90
21799;DHT22;24973;47.178;15.316;2023-02-08T03:51:06;-8.70;99.90
21799;DHT22;24973;47.178;15.316;2023-02-08T03:53:57;-8.70;99.90
21799;DHT22;24973;47.178;15.316;2023-02-08T03:56:54;-8.70;99.90
21799;DHT22;24973;47.178;15.316;2023-02-08T03:59:51;-8.70;99.90
21799;DHT22;24973;47.178;15.316;2023-02-08T04:02:45;-8.70;99.90
21799;DHT22;24973;47.178;15.316;2023-02-08T04:05:37;-8.80;99.90
21799;DHT22;24973;47.178;15.316;2023-02-08T04:08:26;-8.70;99.90
21799;DHT22;24973;47.178;15.316;2023-02-08T04:14:05;-8.70;99.90
21799;DHT22;24973;47.178;15.316;2023-02-08T04:16:54;-8.60;99.90
21799;DHT22;24973;47.178;15.316;2023-02-08T04:22:31;-8.50;99.90
21799;DHT22;24973;47.178;15.316;2023-02-08T04:28:09;-8.50;99.90
21799;DHT22;24973;47.178;15.316;2023-02-08T04:30:59;-8.50;99.90
21799;DHT22;24973;47.178;15.316;2023-02-08T04:33:48;-8.50;99.90
21799;DHT22;24973;47.178;15.316;2023-02-08T04:36:37;-8.70;99.90
21799;DHT22;24973;47.178;15.316;2023-02-08T04:39:26;-8.70;99.90
21799;DHT22;24973;47.178;15.316;2023-02-08T04:42:14;-8.70;99.90
21799;DHT22;24973;47.178;15.316;2023-02-08T04:45:05;-8.80;99.90
21799;DHT22;24973;47.178;15.316;2023-02-08T04:47:56;-8.80;99.90
21799;DHT22;24973;47.178;15.316;2023-02-08T04:50:45;-8.80;99.90
21799;DHT22;24973;47.178;15.316;2023-02-08T04:53:34;-8.90;99.90
21799;DHT22;24973;47.178;15.316;2023-02-08T04:56:22;-5.60;99.90
21799;DHT22;24973;47.178;15.316;2023-02-08T04:59:11;-9.10;99.90
21799;DHT22;24973;47.178;15.316;2023-02-08T05:02:00;-9.20;99.90
21799;DHT22;24973;47.178;15.316;2023-02-08T05:04:50;-9.20;99.90
21799;DHT22;24973;47.178;15.316;2023-02-08T05:07:39;-9.20;99.90
21799;DHT22;24973;47.178;15.316;2023-02-08T05:10:28;-9.00;99.90
21799;DHT22;24973;47.178;15.316;2023-02-08T05:13:16;-9.20;99.90
21799;DHT22;24973;47.178;15.316;2023-02-08T05:16:05;-9.10;99.90
21799;DHT22;24973;47.178;15.316;2023-02-08T05:18:54;-9.00;99.90
21799;DHT22;24973;47.178;15.316;2023-02-08T05:21:44;-8.90;99.90
21799;DHT22;24973;47.178;15.316;2023-02-08T05:24:33;-8.90;99.90
21799;DHT22;24973;47.178;15.316;2023-02-08T05:27:22;-8.90;99.90
21799;DHT22;24973;47.178;15.316;2023-02-08T05:30:11;-8.90;99.90
21799;DHT22;24973;47.178;15.316;2023-02-08T05:33:00;-8.80;99.90
21799;DHT22;24973;47.178;15.316;2023-02-08T05:35:49;-8.80;99.90
21799;DHT22;24973;47.178;15.316;2023-02-08T05:38:39;-8.80;99.90
21799;DHT22;24973;47.178;15.316;2023-02-08T05:41:28;-8.90;99.90
21799;DHT22;24973;47.178;15.316;2023-02-08T05:44:16;-9.00;99.90
21799;DHT22;24973;47.178;15.316;2023-02-08T05:47:05;-9.00;99.90
21799;DHT22;24973;47.178;15.316;2023-02-08T05:49:54;-9.10;99.90
21799;DHT22;24973;47.178;15.316;2023-02-08T05:52:43;-9.10;99.90
21799;DHT22;24973;47.178;15.316;2023-02-08T05:55:33;-9.00;99.90
21799;DHT22;24973;47.178;15.316;2023-02-08T05:58:21;-8.90;99.90
21799;DHT22;24973;47.178;15.316;2023-02-08T06:01:12;-8.90;99.90
21799;DHT22;24973;47.178;15.316;2023-02-08T06:04:01;-8.90;99.90
21799;DHT22;24973;47.178;15.316;2023-02-08T06:06:50;-8.80;99.90
21799;DHT22;24973;47.178;15.316;2023-02-08T06:09:38;-8.70;99.90
21799;DHT22;24973;47.178;15.316;2023-02-08T06:12:29;-8.60;99.90
21799;DHT22;24973;47.178;15.316;2023-02-08T06:15:17;-8.50;99.90
21799;DHT22;24973;47.178;15.316;2023-02-08T06:18:06;-8.40;99.90
21799;DHT22;24973;47.178;15.316;2023-02-08T06:20:55;-8.30;99.90
21799;DHT22;24973;47.178;15.316;2023-02-08T06:23:44;-8.20;99.90
21799;DHT22;24973;47.178;15.316;2023-02-08T06:26:33;-8.30;99.90
21799;DHT22;24973;47.178;15.316;2023-02-08T06:29:23;-8.30;99.90
21799;DHT22;24973;47.178;15.316;2023-02-08T06:32:12;-8.60;99.90
21799;DHT22;24973;47.178;15.316;2023-02-08T06:35:00;-8.60;99.90
21799;DHT22;24973;47.178;15.316;2023-02-08T06:37:49;-8.50;99.90
21799;DHT22;24973;47.178;15.316;2023-02-08T06:40:38;-8.20;99.90
21799;DHT22;24973;47.178;15.316;2023-02-08T06:43:27;-8.00;99.90
21799;DHT22;24973;47.178;15.316;2023-02-08T06:46:17;-7.90;99.90
21799;DHT22;24973;47.178;15.316;2023-02-08T06:49:05;-8.10;99.90
21799;DHT22;24973;47.178;15.316;2023-02-08T06:51:54;-7.60;99.90
21799;DHT22;24973;47.178;15.316;2023-02-08T06:54:43;-7.60;99.90
21799;DHT22;24973;47.178;15.316;2023-02-08T06:57:31;-7.60;99.90
21799;DHT22;24973;47.178;15.316;2023-02-08T07:00:21;-7.50;99.90
21799;DHT22;24973;47.178;15.316;2023-02-08T07:03:12;-7.40;99.90
21799;DHT22;24973;47.178;15.316;2023-02-08T07:06:00;-7.40;99.90
21799;DHT22;24973;47.178;15.316;2023-02-08T07:08:51;-7.40;99.90
21799;DHT22;24973;47.178;15.316;2023-02-08T07:11:40;-7.30;99.90
21799;DHT22;24973;47.178;15.316;2023-02-08T07:14:28;-7.20;99.90
21799;DHT22;24973;47.178;15.316;2023-02-08T07:17:17;-7.10;99.90
21799;DHT22;24973;47.178;15.316;2023-02-08T07:20:09;-7.10;99.90
21799;DHT22;24973;47.178;15.316;2023-02-08T07:22:58;-7.00;99.90
21799;DHT22;24973;47.178;15.316;2023-02-08T07:25:56;-7.00;99.90
21799;DHT22;24973;47.178;15.316;2023-02-08T07:28:45;-6.90;99.90
21799;DHT22;24973;47.178;15.316;2023-02-08T07:31:34;-6.80;99.90
21799;DHT22;24973;47.178;15.316;2023-02-08T07:34:23;-6.80;99.90
21799;DHT22;24973;47.178;15.316;2023-02-08T07:37:13;-6.70;99.90
21799;DHT22;24973;47.178;15.316;2023-02-08T07:40:02;-6.60;99.90
21799;DHT22;24973;47.178;15.316;2023-02-08T07:42:50;-6.60;99.90
21799;DHT22;24973;47.178;15.316;2023-02-08T07:45:39;-6.70;99.90
21799;DHT22;24973;47.178;15.316;2023-02-08T07:48:28;-6.30;99.90
21799;DHT22;24973;47.178;15.316;2023-02-08T07:51:17;-6.30;99.90
21799;DHT22;24973;47.178;15.316;2023-02-08T07:54:07;-6.30;99.90
21799;DHT22;24973;47.178;15.316;2023-02-08T07:56:56;-6.20;99.90
21799;DHT22;24973;47.178;15.316;2023-02-08T07:59:47;-6.10;99.90
21799;DHT22;24973;47.178;15.316;2023-02-08T08:02:36;-4.90;99.90
21799;DHT22;24973;47.178;15.316;2023-02-08T08:05:24;-4.90;99.90
21799;DHT22;24973;47.178;15.316;2023-02-08T08:08:13;-5.70;99.90
21799;DHT22;24973;47.178;15.316;2023-02-08T08:11:03;-5.10;99.90
21799;DHT22;24973;47.178;15.316;2023-02-08T08:13:52;-5.50;99.90
21799;DHT22;24973;47.178;15.316;2023-02-08T08:16:41;-5.50;99.90
21799;DHT22;24973;47.178;15.316;2023-02-08T08:19:30;-5.10;99.90
21799;DHT22;24973;47.178;15.316;2023-02-08T08:22:19;-5.30;99.90
21799;DHT22;24973;47.178;15.316;2023-02-08T08:25:07;-4.70;99.90
21799;DHT22;24973;47.178;15.316;2023-02-08T08:27:57;-5.10;99.90
21799;DHT22;24973;47.178;15.316;2023-02-08T08:30:46;-5.10;99.90
21799;DHT22;24973;47.178;15.316;2023-02-08T08:33:35;-5.00;99.90
21799;DHT22;24973;47.178;15.316;2023-02-08T08:36:24;-4.90;99.90
21799;DHT22;24973;47.178;15.316;2023-02-08T08:39:13;-5.00;99.90
21799;DHT22;24973;47.178;15.316;2023-02-08T08:42:02;-3.30;99.90
21799;DHT22;24973;47.178;15.316;2023-02-08T08:44:53;-4.80;99.90
21799;DHT22;24973;47.178;15.316;2023-02-08T08:47:42;-5.00;99.90
21799;DHT22;24973;47.178;15.316;2023-02-08T08:50:31;-4.80;99.90
21799;DHT22;24973;47.178;15.316;2023-02-08T08:53:19;-4.00;99.90
21799;DHT22;24973;47.178;15.316;2023-02-08T08:56:09;-3.90;99.90
21799;DHT22;24973;47.178;15.316;2023-02-08T08:58:57;-4.40;99.90
21799;DHT22;24973;47.178;15.316;2023-02-08T09:01:47;-4.20;99.90
21799;DHT22;24973;47.178;15.316;2023-02-08T09:04:36;-4.20;99.90
21799;DHT22;24973;47.178;15.316;2023-02-08T09:07:27;-3.70;99.90
21799;DHT22;24973;47.178;15.316;2023-02-08T09:10:15;-4.10;99.90
21799;DHT22;24973;47.178;15.316;2023-02-08T09:13:04;-3.50;99.90
21799;DHT22;24973;47.178;15.316;2023-02-08T09:15:53;-3.60;99.90
21799;DHT22;24973;47.178;15.316;2023-02-08T09:18:43;-3.40;99.90
21799;DHT22;24973;47.178;15.316;2023-02-08T09:21:33;-3.70;99.90
21799;DHT22;24973;47.178;15.316;2023-02-08T09:24:22;-3.60;99.90
21799;DHT22;24973;47.178;15.316;2023-02-08T09:27:11;-3.40;99.90
21799;DHT22;24973;47.178;15.316;2023-02-08T09:30:00;-3.30;99.90
21799;DHT22;24973;47.178;15.316;2023-02-08T09:32:49;-3.20;99.90
21799;DHT22;24973;47.178;15.316;2023-02-08T09:35:39;-3.20;99.90
21799;DHT22;24973;47.178;15.316;2023-02-08T09:38:28;-3.10;99.90
21799;DHT22;24973;47.178;15.316;2023-02-08T09:41:32;-2.90;99.90
21799;DHT22;24973;47.178;15.316;2023-02-08T09:44:32;-2.50;99.90
21799;DHT22;24973;47.178;15.316;2023-02-08T09:47:29;-2.40;99.90
21799;DHT22;24973;47.178;15.316;2023-02-08T09:50:26;-2.30;99.90
21799;DHT22;24973;47.178;15.316;2023-02-08T09:53:22;-2.10;99.90
21799;DHT22;24973;47.178;15.316;2023-02-08T09:56:17;-2.10;99.90
21799;DHT22;24973;47.178;15.316;2023-02-08T09:59:12;-2.00;99.90
21799;DHT22;24973;47.178;15.316;2023-02-08T10:02:13;-1.80;99.90
21799;DHT22;24973;47.178;15.316;2023-02-08T10:05:09;-1.70;99.90
21799;DHT22;24973;47.178;15.316;2023-02-08T10:07:59;-1.60;99.90
21799;DHT22;24973;47.178;15.316;2023-02-08T10:10:53;-1.60;99.90
21799;DHT22;24973;47.178;15.316;2023-02-08T10:13:54;-1.50;99.90
21799;DHT22;24973;47.178;15.316;2023-02-08T10:16:59;-1.40;99.90
21799;DHT22;24973;47.178;15.316;2023-02-08T10:20:03;-1.20;99.90
21799;DHT22;24973;47.178;15.316;2023-02-08T10:23:03;-1.00;99.90
21799;DHT22;24973;47.178;15.316;2023-02-08T10:26:12;-0.80;99.90
21799;DHT22;24973;47.178;15.316;2023-02-08T10:32:47;-0.50;99.90
21799;DHT22;24973;47.178;15.316;2023-02-08T10:35:41;-0.30;99.90
21799;DHT22;24973;47.178;15.316;2023-02-08T10:38:33;-0.30;99.40
21799;DHT22;24973;47.178;15.316;2023-02-08T10:41:35;-0.30;99.50
21799;DHT22;24973;47.178;15.316;2023-02-08T10:44:32;-0.20;99.60
21799;DHT22;24973;47.178;15.316;2023-02-08T10:47:35;-0.10;98.70
21799;DHT22;24973;47.178;15.316;2023-02-08T10:50:33;-0.20;98.40
21799;DHT22;24973;47.178;15.316;2023-02-08T10:53:23;-0.20;98.00
21799;DHT22;24973;47.178;15.316;2023-02-08T10:59:34;-0.20;98.10
21799;DHT22;24973;47.178;15.316;2023-02-08T11:02:27;-0.20;98.30
21799;DHT22;24973;47.178;15.316;2023-02-08T11:05:20;0.00;97.40
21799;DHT22;24973;47.178;15.316;2023-02-08T11:08:19;-0.10;97.70
21799;DHT22;24973;47.178;15.316;2023-02-08T11:11:10;-0.10;97.30
21799;DHT22;24973;47.178;15.316;2023-02-08T11:14:07;-0.20;97.10
21799;DHT22;24973;47.178;15.316;2023-02-08T11:16:58;-0.20;96.90
21799;DHT22;24973;47.178;15.316;2023-02-08T11:19:49;-0.10;97.20
21799;DHT22;24973;47.178;15.316;2023-02-08T11:22:38;-1.90;96.50
21799;DHT22;24973;47.178;15.316;2023-02-08T11:25:36;0.00;96.90
21799;DHT22;24973;47.178;15.316;2023-02-08T11:28:29;0.10;97.20
21799;DHT22;24973;47.178;15.316;2023-02-08T11:31:20;0.10;96.00
21799;DHT22;24973;47.178;15.316;2023-02-08T11:34:10;0.10;95.80
21799;DHT22;24973;47.178;15.316;2023-02-08T11:37:02;0.00;95.90
21799;DHT22;24973;47.178;15.316;2023-02-08T11:39:53;0.00;95.80
21799;DHT22;24973;47.178;15.316;2023-02-08T11:42:43;0.00;95.90
21799;DHT22;24973;47.178;15.316;2023-02-08T11:45:34;0.10;95.60
21799;DHT22;24973;47.178;15.316;2023-02-08T11:48:41;0.20;95.60
21799;DHT22;24973;47.178;15.316;2023-02-08T11:51:33;0.20;95.40
21799;DHT22;24973;47.178;15.316;2023-02-08T11:54:34;0.40;95.70
21799;DHT22;24973;47.178;15.316;2023-02-08T11:57:27;0.40;95.40
21799;DHT22;24973;47.178;15.316;2023-02-08T12:00:18;0.60;95.30
21799;DHT22;24973;47.178;15.316;2023-02-08T12:03:13;0.70;94.80
21799;DHT22;24973;47.178;15.316;2023-02-08T12:06:19;0.80;94.40
21799;DHT22;24973;47.178;15.316;2023-02-08T12:09:32;0.90;94.40
21799;DHT22;24973;47.178;15.316;2023-02-08T12:12:42;0.80;93.70
21799;DHT22;24973;47.178;15.316;2023-02-08T12:15:47;1.00;93.80
21799;DHT22;24973;47.178;15.316;2023-02-08T12:19:06;1.10;93.40
21799;DHT22;24973;47.178;15.316;2023-02-08T12:22:18;1.20;93.20
21799;DHT22;24973;47.178;15.316;2023-02-08T12:25:21;1.20;92.50
21799;DHT22;24973;47.178;15.316;2023-02-08T12:28:20;1.10;91.00
21799;DHT22;24973;47.178;15.316;2023-02-08T12:31:19;1.00;91.50
21799;DHT22;24973;47.178;15.316;2023-02-08T12:34:16;1.00;91.70
21799;DHT22;24973;47.178;15.316;2023-02-08T12:37:29;0.90;91.90
21799;DHT22;24973;47.178;15.316;2023-02-08T12:40:44;1.00;91.60
21799;DHT22;24973;47.178;15.316;2023-02-08T12:43:47;1.00;91.10
21799;DHT22;24973;47.178;15.316;2023-02-08T12:47:00;1.00;90.90
21799;DHT22;24973;47.178;15.316;2023-02-08T12:50:02;0.90;90.70
21799;DHT22;24973;47.178;15.316;2023-02-08T12:53:00;1.00;91.00
21799;DHT22;24973;47.178;15.316;2023-02-08T12:55:52;1.00;91.30
21799;DHT22;24973;47.178;15.316;2023-02-08T12:58:44;1.50;91.40
21799;DHT22;24973;47.178;15.316;2023-02-08T13:01:37;1.20;91.10
21799;DHT22;24973;47.178;15.316;2023-02-08T13:04:31;1.40;91.10
21799;DHT22;24973;47.178;15.316;2023-02-08T13:07:25;1.30;90.80
21799;DHT22;24973;47.178;15.316;2023-02-08T13:10:23;1.20;90.10
21799;DHT22;24973;47.178;15.316;2023-02-08T13:13:18;1.30;90.30
21799;DHT22;24973;47.178;15.316;2023-02-08T13:16:13;1.40;90.00
21799;DHT22;24973;47.178;15.316;2023-02-08T13:19:23;1.30;88.30
21799;DHT22;24973;47.178;15.316;2023-02-08T13:22:15;1.40;88.30
21799;DHT22;24973;47.178;15.316;2023-02-08T13:25:08;1.40;89.20
21799;DHT22;24973;47.178;15.316;2023-02-08T13:28:06;1.40;89.70
21799;DHT22;24973;47.178;15.316;2023-02-08T13:30:59;1.50;90.10
21799;DHT22;24973;47.178;15.316;2023-02-08T13:33:54;1.90;90.00
21799;DHT22;24973;47.178;15.316;2023-02-08T13:36:52;1.90;88.50
21799;DHT22;24973;47.178;15.316;2023-02-08T13:39:46;1.80;88.00
21799;DHT22;24973;47.178;15.316;2023-02-08T13:42:39;1.90;87.60
21799;DHT22;24973;47.178;15.316;2023-02-08T13:45:33;1.80;86.80
21799;DHT22;24973;47.178;15.316;2023-02-08T13:48:23;2.00;86.20
21799;DHT22;24973;47.178;15.316;2023-02-08T13:59:03;2.30;84.90
21799;DHT22;24973;47.178;15.316;2023-02-08T14:02:20;3.10;85.40
21799;DHT22;24973;47.178;15.316;2023-02-08T14:05:41;4.00;84.20
21799;DHT22;24973;47.178;15.316;2023-02-08T14:08:38;4.60;79.70
21799;DHT22;24973;47.178;15.316;2023-02-08T14:11:37;4.20;77.10
21799;DHT22;24973;47.178;15.316;2023-02-08T14:14:30;4.00;77.20
21799;DHT22;24973;47.178;15.316;2023-02-08T14:17:26;3.80;77.00
21799;DHT22;24973;47.178;15.316;2023-02-08T14:20:18;3.70;77.40
21799;DHT22;24973;47.178;15.316;2023-02-08T14:23:21;3.50;77.80
21799;DHT22;24973;47.178;15.316;2023-02-08T14:26:19;3.40;79.00
21799;DHT22;24973;47.178;15.316;2023-02-08T14:29:19;3.30;78.10
21799;DHT22;24973;47.178;15.316;2023-02-08T14:32:22;3.20;77.70
21799;DHT22;24973;47.178;15.316;2023-02-08T14:35:18;3.00;77.10
21799;DHT22;24973;47.178;15.316;2023-02-08T14:38:32;2.90;77.30
21799;DHT22;24973;47.178;15.316;2023-02-08T14:41:51;2.70;77.30
21799;DHT22;24973;47.178;15.316;2023-02-08T14:44:59;2.60;78.10
21799;DHT22;24973;47.178;15.316;2023-02-08T14:48:15;2.60;78.80
21799;DHT22;24973;47.178;15.316;2023-02-08T14:51:15;2.60;79.40
21799;DHT22;24973;47.178;15.316;2023-02-08T14:54:18;2.70;80.10
21799;DHT22;24973;47.178;15.316;2023-02-08T14:57:20;3.50;80.60
21799;DHT22;24973;47.178;15.316;2023-02-08T15:00:19;4.50;76.20
21799;DHT22;24973;47.178;15.316;2023-02-08T15:03:14;4.70;75.30
21799;DHT22;24973;47.178;15.316;2023-02-08T15:06:38;4.70;73.90
21799;DHT22;24973;47.178;15.316;2023-02-08T15:09:38;5.00;74.00
21799;DHT22;24973;47.178;15.316;2023-02-08T15:12:29;5.60;72.10
21799;DHT22;24973;47.178;15.316;2023-02-08T15:15:24;5.80;70.70
21799;DHT22;24973;47.178;15.316;2023-02-08T15:18:19;6.10;69.60
21799;DHT22;24973;47.178;15.316;2023-02-08T15:21:15;6.10;67.20
21799;DHT22;24973;47.178;15.316;2023-02-08T15:24:13;5.80;67.20
21799;DHT22;24973;47.178;15.316;2023-02-08T15:27:15;5.60;67.50
21799;DHT22;24973;47.178;15.316;2023-02-08T15:30:25;5.30;67.70
21799;DHT22;24973;47.178;15.316;2023-02-08T15:33:17;4.70;69.10
21799;DHT22;24973;47.178;15.316;2023-02-08T15:36:13;4.00;70.10
21799;DHT22;24973;47.178;15.316;2023-02-08T15:39:22;3.60;71.70
21799;DHT22;24973;47.178;15.316;2023-02-08T15:42:18;3.00;73.30
21799;DHT22;24973;47.178;15.316;2023-02-08T15:45:20;2.60;74.00
21799;DHT22;24973;47.178;15.316;2023-02-08T15:48:11;2.30;74.70
21799;DHT22;24973;47.178;15.316;2023-02-08T15:51:02;1.90;75.50
21799;DHT22;24973;47.178;15.316;2023-02-08T15:53:54;1.60;76.50
21799;DHT22;24973;47.178;15.316;2023-02-08T15:56:48;1.30;78.20
21799;DHT22;24973;47.178;15.316;2023-02-08T15:59:39;1.00;80.00
21799;DHT22;24973;47.178;15.316;2023-02-08T16:02:29;0.90;81.40
21799;DHT22;24973;47.178;15.316;2023-02-08T16:05:20;0.90;82.90
21799;DHT22;24973;47.178;15.316;2023-02-08T16:08:20;0.50;81.90
21799;DHT22;24973;47.178;15.316;2023-02-08T16:11:12;0.40;83.50
21799;DHT22;24973;47.178;15.316;2023-02-08T16:14:12;0.20;84.60
21799;DHT22;24973;47.178;15.316;2023-02-08T16:17:01;0.00;85.50
21799;DHT22;24973;47.178;15.316;2023-02-08T16:19:50;-0.10;87.20
21799;DHT22;24973;47.178;15.316;2023-02-08T16:22:39;-0.20;87.80
21799;DHT22;24973;47.178;15.316;2023-02-08T16:25:42;-0.30;88.80
21799;DHT22;24973;47.178;15.316;2023-02-08T16:28:35;-0.50;90.50
21799;DHT22;24973;47.178;15.316;2023-02-08T16:31:25;-0.60;90.70
21799;DHT22;24973;47.178;15.316;2023-02-08T16:34:17;-0.80;90.90
21799;DHT22;24973;47.178;15.316;2023-02-08T16:37:21;-0.90;90.60
21799;DHT22;24973;47.178;15.316;2023-02-08T16:40:40;-1.00;90.70
21799;DHT22;24973;47.178;15.316;2023-02-08T16:43:34;-1.10;91.10
21799;DHT22;24973;47.178;15.316;2023-02-08T16:46:26;-1.20;92.00
21799;DHT22;24973;47.178;15.316;2023-02-08T16:49:14;-1.20;92.00
21799;DHT22;24973;47.178;15.316;2023-02-08T16:52:03;-1.30;92.20
21799;DHT22;24973;47.178;15.316;2023-02-08T16:54:52;-1.20;92.60
21799;DHT22;24973;47.178;15.316;2023-02-08T16:57:45;-1.40;92.70
21799;DHT22;24973;47.178;15.316;2023-02-08T17:00:34;-1.40;92.50
21799;DHT22;24973;47.178;15.316;2023-02-08T17:03:24;-0.20;93.50
21799;DHT22;24973;47.178;15.316;2023-02-08T17:06:21;-1.40;93.30
21799;DHT22;24973;47.178;15.316;2023-02-08T17:09:15;-1.50;93.20
21799;DHT22;24973;47.178;15.316;2023-02-08T17:12:08;-1.40;93.50
21799;DHT22;24973;47.178;15.316;2023-02-08T17:15:09;-1.40;94.10
21799;DHT22;24973;47.178;15.316;2023-02-08T17:17:58;-1.10;95.80
21799;DHT22;24973;47.178;15.316;2023-02-08T17:20:47;-1.30;95.20
21799;DHT22;24973;47.178;15.316;2023-02-08T17:23:36;-1.30;95.30
21799;DHT22;24973;47.178;15.316;2023-02-08T17:26:26;-1.30;95.10
21799;DHT22;24973;47.178;15.316;2023-02-08T17:29:16;-1.30;95.10
21799;DHT22;24973;47.178;15.316;2023-02-08T17:32:06;-1.30;95.10
21799;DHT22;24973;47.178;15.316;2023-02-08T17:34:55;-1.30;95.20
21799;DHT22;24973;47.178;15.316;2023-02-08T17:37:47;-1.30;95.60
21799;DHT22;24973;47.178;15.316;2023-02-08T17:40:39;-1.30;96.00
21799;DHT22;24973;47.178;15.316;2023-02-08T17:43:28;-1.40;96.00
21799;DHT22;24973;47.178;15.316;2023-02-08T17:46:19;-1.50;95.40
21799;DHT22;24973;47.178;15.316;2023-02-08T17:49:10;-1.50;95.60
21799;DHT22;24973;47.178;15.316;2023-02-08T17:51:59;-1.50;95.70
21799;DHT22;24973;47.178;15.316;2023-02-08T17:54:47;-1.60;95.80
21799;DHT22;24973;47.178;15.316;2023-02-08T17:57:38;-1.60;95.70
21799;DHT22;24973;47.178;15.316;2023-02-08T18:00:27;-1.50;95.60
21799;DHT22;24973;47.178;15.316;2023-02-08T18:03:16;-1.50;95.30
21799;DHT22;24973;47.178;15.316;2023-02-08T18:06:06;-1.50;95.60
21799;DHT22;24973;47.178;15.316;2023-02-08T18:08:55;-2.10;95.70
21799;DHT22;24973;47.178;15.316;2023-02-08T18:11:44;-1.50;96.10
21799;DHT22;24973;47.178;15.316;2023-02-08T18:14:33;-1.50;97.00
21799;DHT22;24973;47.178;15.316;2023-02-08T18:17:24;-1.50;96.90
21799;DHT22;24973;47.178;15.316;2023-02-08T18:20:14;-1.20;96.90
21799;DHT22;24973;47.178;15.316;2023-02-08T18:23:04;-1.50;97.20
21799;DHT22;24973;47.178;15.316;2023-02-08T18:26:02;-1.60;97.70
21799;DHT22;24973;47.178;15.316;2023-02-08T18:28:52;-1.60;97.60
21799;DHT22;24973;47.178;15.316;2023-02-08T18:31:41;-1.60;98.40
21799;DHT22;24973;47.178;15.316;2023-02-08T18:34:29;-1.70;98.70
21799;DHT22;24973;47.178;15.316;2023-02-08T18:37:20;-1.50;98.90
21799;DHT22;24973;47.178;15.316;2023-02-08T18:40:11;-1.70;99.00
21799;DHT22;24973;47.178;15.316;2023-02-08T18:43:00;-1.70;98.70
21799;DHT22;24973;47.178;15.316;2023-02-08T18:45:59;-1.80;98.60
21799;DHT22;24973;47.178;15.316;2023-02-08T18:48:50;-1.80;98.70
21799;DHT22;24973;47.178;15.316;2023-02-08T18:51:40;-1.80;98.40
21799;DHT22;24973;47.178;15.316;2023-02-08T18:54:30;-1.10;98.50
21799;DHT22;24973;47.178;15.316;2023-02-08T18:57:20;-1.80;98.40
21799;DHT22;24973;47.178;15.316;2023-02-08T19:00:11;-1.80;98.60
21799;DHT22;24973;47.178;15.316;2023-02-08T19:03:00;-1.80;98.40
21799;DHT22;24973;47.178;15.316;2023-02-08T19:05:49;-1.80;98.20
21799;DHT22;24973;47.178;15.316;2023-02-08T19:08:40;-1.80;98.40
21799;DHT22;24973;47.178;15.316;2023-02-08T19:11:32;-1.80;98.20